Time;durP1;ratioP1;P1;durP2;ratioP2;P2;SDS_P1;SDS_P2;PMS_P1;PMS_P2;Temp;Humidity;BMP_temperature;BMP_pressure;BME280_temperature;BME280_humidity;BME280_pressure;Samples;Min_cycle;Max_cycle;Signal;HPM_P1;HPM_P2
2021/07/23 00:00:05;;;;;;;58.87;3.93;;;17.60;1.00;;;;;;5061620;28;20541;-74
2021/07/23 00:02:32;;;;;;;58.47;2.90;;;17.60;1.00;;;;;;5073571;28;20545;-74
2021/07/23 00:04:59;;;;;;;58.50;2.97;;;17.50;1.00;;;;;;5073914;28;20925;-74
2021/07/23 00:07:25;;;;;;;58.73;3.10;;;17.50;1.00;;;;;;5074082;28;20545;-74
2021/07/23 00:09:52;;;;;;;59.90;4.77;;;17.50;1.00;;;;;;5074458;28;20486;-74
2021/07/23 00:12:20;;;;;;;59.00;2.80;;;17.40;1.00;;;;;;5074181;28;20481;-72
2021/07/23 00:14:47;;;;;;;60.03;3.70;;;17.40;1.00;;;;;;5074043;28;20579;-72
2021/07/23 00:17:14;;;;;;;60.30;2.80;;;17.40;1.00;;;;;;5074041;28;20554;-72
2021/07/23 00:19:41;;;;;;;60.50;4.53;;;17.40;1.00;;;;;;5073899;28;20493;-72
2021/07/23 00:22:08;;;;;;;58.67;3.43;;;17.30;1.00;;;;;;5073954;28;20501;-74
2021/07/23 00:24:35;;;;;;;59.20;3.33;;;17.20;1.00;;;;;;5073335;28;21061;-72
2021/07/23 00:27:01;;;;;;;60.17;3.90;;;17.20;1.00;;;;;;5073350;28;20489;-72
2021/07/23 00:29:30;;;;;;;59.83;5.57;;;17.20;1.00;;;;;;5073813;28;20537;-71
2021/07/23 00:31:56;;;;;;;59.07;3.10;;;17.20;1.00;;;;;;5072212;28;20451;-72
2021/07/23 00:34:23;;;;;;;59.00;3.00;;;17.10;1.00;;;;;;5057778;28;21010;-72
2021/07/23 00:36:50;;;;;;;58.97;4.07;;;17.10;1.00;;;;;;5053511;28;20491;-72
2021/07/23 00:39:17;;;;;;;58.80;2.83;;;17.10;1.00;;;;;;5053769;28;20552;-72
2021/07/23 00:41:44;;;;;;;58.87;2.90;;;17.00;1.00;;;;;;5053376;28;20541;-72
2021/07/23 00:44:11;;;;;;;59.00;3.77;;;17.00;1.00;;;;;;5053481;28;20450;-72
2021/07/23 00:46:40;;;;;;;58.43;2.90;;;17.00;1.00;;;;;;5053477;28;20873;-72
2021/07/23 00:49:08;;;;;;;58.90;3.10;;;16.90;1.00;;;;;;5053505;28;20447;-72
2021/07/23 00:51:35;;;;;;;58.53;3.00;;;16.90;1.00;;;;;;5053280;28;20537;-72
2021/07/23 00:54:03;;;;;;;59.57;3.63;;;16.80;1.00;;;;;;5053266;28;20566;-73
2021/07/23 00:56:31;;;;;;;63.00;4.83;;;16.90;1.00;;;;;;5053436;28;21031;-72
2021/07/23 00:58:59;;;;;;;59.50;3.63;;;16.90;1.00;;;;;;5053575;28;20496;-71
2021/07/23 01:01:26;;;;;;;58.83;3.37;;;16.90;1.00;;;;;;5053024;28;20956;-72
2021/07/23 01:03:55;;;;;;;58.70;2.90;;;16.80;1.00;;;;;;5071236;28;20882;-72
2021/07/23 01:06:23;;;;;;;58.87;3.00;;;16.80;1.00;;;;;;5072894;28;20564;-72
2021/07/23 01:08:50;;;;;;;58.40;3.37;;;16.80;1.00;;;;;;5073209;28;20453;-72
2021/07/23 01:11:17;;;;;;;59.10;3.20;;;16.80;1.00;;;;;;5072964;28;20931;-73
2021/07/23 01:13:45;;;;;;;58.70;3.37;;;16.80;1.00;;;;;;5072731;28;20529;-72
2021/07/23 01:16:11;;;;;;;58.90;3.70;;;16.80;1.00;;;;;;5072823;28;20558;-72
2021/07/23 01:18:38;;;;;;;60.70;3.13;;;16.80;1.00;;;;;;5072932;28;20531;-73
2021/07/23 01:21:07;;;;;;;58.37;2.70;;;16.80;1.00;;;;;;5072768;28;20459;-73
2021/07/23 01:23:36;;;;;;;58.70;3.00;;;16.80;1.00;;;;;;5072560;28;21053;-72
2021/07/23 01:26:05;;;;;;;59.87;4.07;;;16.70;1.00;;;;;;5072597;28;20977;-72
2021/07/23 01:28:35;;;;;;;58.60;3.30;;;16.80;1.00;;;;;;5072470;28;20488;-72
2021/07/23 01:31:03;;;;;;;58.33;2.90;;;16.70;1.00;;;;;;5072617;28;20953;-72
2021/07/23 01:33:30;;;;;;;58.90;3.67;;;16.70;1.00;;;;;;5071146;28;20462;-72
2021/07/23 01:35:58;;;;;;;59.57;3.90;;;16.70;1.00;;;;;;5072064;28;20492;-72
2021/07/23 01:38:28;;;;;;;58.40;3.27;;;16.80;1.00;;;;;;5072388;28;20449;-72
2021/07/23 01:40:57;;;;;;;58.70;3.70;;;16.80;1.00;;;;;;5072191;28;20528;-72
2021/07/23 01:43:25;;;;;;;59.37;3.20;;;16.70;1.00;;;;;;5072279;28;20486;-72
2021/07/23 01:45:53;;;;;;;58.90;3.20;;;16.70;1.00;;;;;;5072492;28;20477;-72
2021/07/23 01:48:20;;;;;;;58.97;3.00;;;16.60;1.00;;;;;;5072381;28;20453;-72
2021/07/23 01:50:47;;;;;;;58.67;2.60;;;16.60;1.00;;;;;;5072401;28;20449;-72
2021/07/23 01:53:14;;;;;;;61.00;4.50;;;16.60;1.00;;;;;;5071772;28;20971;-73
2021/07/23 01:55:42;;;;;;;58.80;3.43;;;16.60;1.00;;;;;;5072197;28;20493;-72
2021/07/23 01:58:11;;;;;;;58.90;3.73;;;16.60;1.00;;;;;;5072354;28;20448;-72
2021/07/23 02:00:38;;;;;;;60.40;5.07;;;16.60;1.00;;;;;;5072167;28;20485;-72
2021/07/23 02:03:05;;;;;;;59.47;3.30;;;16.60;1.00;;;;;;5071734;28;20468;-73
2021/07/23 02:05:31;;;;;;;58.53;2.63;;;16.60;1.00;;;;;;5070363;28;20504;-72
2021/07/23 02:08:00;;;;;;;59.50;3.20;;;16.50;1.00;;;;;;5071722;28;20480;-72
2021/07/23 02:10:27;;;;;;;58.43;2.90;;;16.50;1.00;;;;;;5072143;28;20463;-72
2021/07/23 02:12:54;;;;;;;58.57;3.07;;;16.60;1.00;;;;;;5071911;28;20536;-72
2021/07/23 02:15:22;;;;;;;58.67;2.97;;;16.50;1.00;;;;;;5072065;28;20579;-72
2021/07/23 02:17:49;;;;;;;58.77;3.37;;;16.50;1.00;;;;;;5071815;28;20944;-72
2021/07/23 02:20:16;;;;;;;58.70;3.20;;;16.50;1.00;;;;;;5071798;28;20548;-72
2021/07/23 02:22:43;;;;;;;58.60;2.90;;;16.50;1.00;;;;;;5071393;28;21055;-72
2021/07/23 02:25:10;;;;;;;59.47;4.13;;;16.40;1.00;;;;;;5071908;28;20552;-72
2021/07/23 02:27:37;;;;;;;58.63;3.03;;;16.40;1.00;;;;;;5071905;28;20449;-72
2021/07/23 02:30:04;;;;;;;58.87;2.93;;;16.40;1.00;;;;;;5071924;28;20804;-72
2021/07/23 02:32:32;;;;;;;59.30;3.37;;;16.40;1.00;;;;;;5071452;28;20452;-72
2021/07/23 02:34:59;;;;;;;58.53;2.90;;;16.40;1.00;;;;;;5071588;28;20488;-72
2021/07/23 02:37:26;;;;;;;58.20;3.03;;;16.40;1.00;;;;;;5070699;28;20902;-71
2021/07/23 02:39:53;;;;;;;58.57;3.00;;;16.30;1.00;;;;;;5071623;28;21021;-72
2021/07/23 02:42:20;;;;;;;60.50;3.00;;;16.30;1.00;;;;;;5071282;28;20548;-72
2021/07/23 02:44:46;;;;;;;59.10;2.93;;;16.20;1.00;;;;;;5071540;28;20576;-72
2021/07/23 02:47:13;;;;;;;58.43;3.33;;;16.20;1.00;;;;;;5071732;28;20539;-72
2021/07/23 02:49:41;;;;;;;59.10;3.60;;;16.20;1.00;;;;;;5074312;28;20481;-72
2021/07/23 02:52:08;;;;;;;58.17;2.70;;;16.20;1.00;;;;;;5075679;28;20530;-72
2021/07/23 02:54:35;;;;;;;59.47;3.87;;;16.20;1.00;;;;;;5075416;28;20577;-72
2021/07/23 02:57:02;;;;;;;60.07;3.77;;;16.20;1.00;;;;;;5075574;28;20542;-72
2021/07/23 02:59:29;;;;;;;59.77;3.90;;;16.10;1.00;;;;;;5075614;28;20499;-73
2021/07/23 03:01:56;;;;;;;58.27;3.00;;;16.10;1.00;;;;;;5075069;28;20451;-72
2021/07/23 03:04:23;;;;;;;59.10;2.90;;;16.10;1.00;;;;;;5075160;28;20563;-72
2021/07/23 03:06:51;;;;;;;59.30;2.93;;;16.10;1.00;;;;;;5074172;28;20540;-72
2021/07/23 03:09:18;;;;;;;58.60;2.80;;;16.00;1.00;;;;;;5066596;28;20449;-72
2021/07/23 03:11:44;;;;;;;59.10;3.77;;;16.00;1.00;;;;;;5055209;28;20535;-72
2021/07/23 03:14:11;;;;;;;58.53;2.90;;;15.90;1.00;;;;;;5055176;28;20455;-72
2021/07/23 03:16:38;;;;;;;59.27;4.00;;;15.90;1.00;;;;;;5055020;28;20898;-72
2021/07/23 03:19:05;;;;;;;58.87;3.60;;;15.90;1.00;;;;;;5055325;28;20876;-72
2021/07/23 03:21:32;;;;;;;59.00;3.30;;;15.90;1.00;;;;;;5054764;28;20537;-72
2021/07/23 03:24:00;;;;;;;58.30;3.23;;;15.90;1.00;;;;;;5054952;28;20489;-72
2021/07/23 03:26:27;;;;;;;59.33;3.60;;;15.90;1.00;;;;;;5055063;28;20537;-72
2021/07/23 03:28:54;;;;;;;58.57;3.63;;;15.90;1.00;;;;;;5054981;28;20499;-72
2021/07/23 03:31:20;;;;;;;59.37;3.40;;;15.90;1.00;;;;;;5054684;28;20475;-72
2021/07/23 03:33:47;;;;;;;58.73;3.30;;;15.80;1.00;;;;;;5055165;28;20459;-72
2021/07/23 03:36:14;;;;;;;60.03;3.07;;;15.70;1.00;;;;;;5054958;28;20581;-72
2021/07/23 03:38:41;;;;;;;59.40;3.57;;;15.70;1.00;;;;;;5063388;28;20499;-72
2021/07/23 03:41:09;;;;;;;60.37;4.50;;;15.60;1.00;;;;;;5061917;28;20540;-72
2021/07/23 03:43:36;;;;;;;59.17;3.50;;;15.50;1.00;;;;;;5054668;28;20535;-72
2021/07/23 03:46:03;;;;;;;59.77;3.87;;;15.50;1.00;;;;;;5054310;28;20472;-72
2021/07/23 03:48:29;;;;;;;58.73;2.80;;;15.50;1.00;;;;;;5054796;28;20870;-73
2021/07/23 03:50:56;;;;;;;59.10;3.53;;;15.50;1.00;;;;;;5054570;28;20452;-73
2021/07/23 03:53:25;;;;;;;58.93;3.10;;;15.40;1.00;;;;;;5054254;28;21017;-73
2021/07/23 03:55:52;;;;;;;59.77;3.93;;;15.50;1.00;;;;;;5054800;28;20483;-73
2021/07/23 03:58:20;;;;;;;59.80;3.73;;;15.50;1.00;;;;;;5054349;28;20548;-73
2021/07/23 04:00:47;;;;;;;59.27;3.77;;;15.50;1.00;;;;;;5054487;28;20545;-73
2021/07/23 04:03:13;;;;;;;59.83;4.33;;;15.40;1.00;;;;;;5053969;28;21035;-73
2021/07/23 04:05:41;;;;;;;59.00;4.07;;;15.40;1.00;;;;;;5054227;28;21042;-72
2021/07/23 04:08:09;;;;;;;60.87;4.80;;;15.40;1.00;;;;;;5054221;28;20876;-73
2021/07/23 04:10:35;;;;;;;59.10;3.73;;;15.40;1.00;;;;;;5053323;28;20540;-73
2021/07/23 04:13:02;;;;;;;58.87;2.93;;;15.30;1.00;;;;;;5073330;28;20488;-73
2021/07/23 04:15:31;;;;;;;58.47;2.80;;;15.30;1.00;;;;;;5074246;28;20494;-73
2021/07/23 04:17:57;;;;;;;58.90;3.23;;;15.40;1.00;;;;;;5074114;28;20548;-73
2021/07/23 04:20:24;;;;;;;58.80;3.77;;;15.40;1.00;;;;;;5074005;28;20444;-73
2021/07/23 04:22:51;;;;;;;58.70;2.87;;;15.40;1.00;;;;;;5073721;28;20952;-73
2021/07/23 04:25:18;;;;;;;58.60;2.90;;;15.40;1.00;;;;;;5073783;28;20554;-73
2021/07/23 04:27:45;;;;;;;58.27;2.70;;;15.50;1.00;;;;;;5074126;28;21110;-73
2021/07/23 04:30:13;;;;;;;58.80;2.70;;;15.50;1.00;;;;;;5073815;28;20495;-73
2021/07/23 04:32:41;;;;;;;59.67;4.17;;;15.50;1.00;;;;;;5073640;28;20970;-73
2021/07/23 04:35:09;;;;;;;58.93;3.50;;;15.50;1.00;;;;;;5073593;28;20485;-73
2021/07/23 04:37:36;;;;;;;58.47;3.00;;;15.50;1.00;;;;;;5073721;28;20462;-73
2021/07/23 04:40:06;;;;;;;58.57;2.80;;;15.50;1.00;;;;;;5072398;28;20450;-73
2021/07/23 04:42:33;;;;;;;60.70;3.50;;;15.50;1.00;;;;;;5073192;28;21195;-73
2021/07/23 04:45:00;;;;;;;58.73;3.10;;;15.50;1.00;;;;;;5073731;28;20473;-73
2021/07/23 04:47:27;;;;;;;62.17;4.50;;;15.50;1.00;;;;;;5073594;28;20484;-73
2021/07/23 04:49:55;;;;;;;58.80;3.30;;;15.50;1.00;;;;;;5073520;28;20532;-73
2021/07/23 04:52:22;;;;;;;58.57;2.90;;;15.50;1.00;;;;;;5073465;28;20465;-73
2021/07/23 04:54:49;;;;;;;61.50;3.60;;;15.60;1.00;;;;;;5073348;28;20488;-73
2021/07/23 04:57:18;;;;;;;58.43;3.10;;;15.60;1.00;;;;;;5073558;28;20478;-73
2021/07/23 04:59:45;;;;;;;59.63;3.23;;;15.60;1.00;;;;;;5073563;28;20481;-73
2021/07/23 05:02:12;;;;;;;58.97;3.10;;;15.60;1.00;;;;;;5072831;28;20476;-73
2021/07/23 05:04:39;;;;;;;58.90;3.20;;;15.60;1.00;;;;;;5073096;28;20468;-73
2021/07/23 05:07:07;;;;;;;59.00;3.00;;;15.60;1.00;;;;;;5072931;28;20535;-73
2021/07/23 05:09:34;;;;;;;58.53;2.77;;;15.70;1.00;;;;;;5073338;28;20542;-73
2021/07/23 05:12:01;;;;;;;58.77;3.10;;;15.70;1.00;;;;;;5071021;28;20448;-73
2021/07/23 05:14:31;;;;;;;58.47;2.70;;;15.70;1.00;;;;;;5072913;28;20919;-73
2021/07/23 05:16:58;;;;;;;58.87;3.30;;;15.70;1.00;;;;;;5072730;28;20484;-73
2021/07/23 05:19:25;;;;;;;59.00;3.90;;;15.70;1.00;;;;;;5072861;28;20444;-73
2021/07/23 05:21:52;;;;;;;58.60;3.00;;;15.70;1.00;;;;;;5072502;28;20451;-73
2021/07/23 05:24:20;;;;;;;58.37;2.90;;;15.80;1.00;;;;;;5072971;28;20576;-73
2021/07/23 05:26:47;;;;;;;58.60;3.27;;;15.90;1.00;;;;;;5072869;28;20441;-73
2021/07/23 05:29:14;;;;;;;62.17;3.77;;;15.90;1.00;;;;;;5072658;28;20538;-73
2021/07/23 05:31:41;;;;;;;59.47;3.70;;;15.90;1.00;;;;;;5072218;28;20519;-73
2021/07/23 05:34:08;;;;;;;58.67;2.87;;;16.00;1.00;;;;;;5072461;28;20440;-73
2021/07/23 05:36:34;;;;;;;58.97;3.20;;;16.00;1.00;;;;;;5072621;28;20491;-73
2021/07/23 05:39:01;;;;;;;59.00;4.00;;;16.10;1.00;;;;;;5072587;28;20457;-73
2021/07/23 05:41:30;;;;;;;59.10;3.37;;;16.20;1.00;;;;;;5071094;28;20476;-73
2021/07/23 05:43:58;;;;;;;58.40;3.27;;;16.20;1.00;;;;;;5055785;28;20442;-73
2021/07/23 05:46:26;;;;;;;58.90;3.00;;;16.30;1.00;;;;;;5072357;28;20453;-73
2021/07/23 05:48:53;;;;;;;59.00;3.63;;;16.30;1.00;;;;;;5072085;28;20545;-73
2021/07/23 05:51:19;;;;;;;58.90;3.30;;;16.40;1.00;;;;;;5072378;28;20536;-73
2021/07/23 05:53:46;;;;;;;58.03;2.90;;;16.40;1.00;;;;;;5072103;28;20507;-73
2021/07/23 05:56:13;;;;;;;60.07;4.50;;;16.50;1.00;;;;;;5072272;28;20572;-73
2021/07/23 05:58:41;;;;;;;58.37;3.50;;;16.50;1.00;;;;;;5072233;28;21041;-73
2021/07/23 06:01:08;;;;;;;58.23;2.70;;;16.60;1.00;;;;;;5071907;28;20476;-73
2021/07/23 06:03:36;;;;;;;61.23;3.33;;;16.70;1.00;;;;;;5071758;28;20544;-73
2021/07/23 06:06:03;;;;;;;59.50;3.83;;;16.70;1.00;;;;;;5072372;28;20465;-73
2021/07/23 06:08:30;;;;;;;59.10;3.20;;;16.80;1.00;;;;;;5072160;28;20894;-73
2021/07/23 06:10:57;;;;;;;58.47;2.90;;;16.80;1.00;;;;;;5071972;28;20897;-73
2021/07/23 06:13:24;;;;;;;59.63;3.97;;;16.90;1.00;;;;;;5070362;28;20496;-73
2021/07/23 06:15:52;;;;;;;58.27;3.10;;;17.00;1.00;;;;;;5061071;28;20590;-73
2021/07/23 06:18:19;;;;;;;59.67;3.90;;;17.00;1.00;;;;;;5051844;28;20456;-73
2021/07/23 06:20:45;;;;;;;61.23;3.97;;;17.10;1.00;;;;;;5051852;28;20550;-74
2021/07/23 06:23:12;;;;;;;57.83;2.50;;;17.10;1.00;;;;;;5050731;28;20458;-73
2021/07/23 06:25:39;;;;;;;58.40;3.07;;;17.20;1.00;;;;;;5051843;28;20502;-74
2021/07/23 06:28:06;;;;;;;60.30;4.10;;;17.30;1.00;;;;;;5051684;28;20447;-73
2021/07/23 06:30:33;;;;;;;58.80;2.80;;;17.30;1.00;;;;;;5051521;28;20462;-73
2021/07/23 06:33:01;;;;;;;59.50;4.30;;;17.40;1.00;;;;;;5051821;28;20450;-72
2021/07/23 06:35:30;;;;;;;58.47;3.00;;;17.50;1.00;;;;;;5051576;28;20558;-72
2021/07/23 06:37:58;;;;;;;58.47;3.33;;;17.60;1.00;;;;;;5051625;28;20481;-74
2021/07/23 06:40:25;;;;;;;58.57;3.60;;;17.70;1.00;;;;;;5051636;28;20457;-74
2021/07/23 06:42:52;;;;;;;58.57;3.20;;;17.90;1.00;;;;;;5051185;28;20451;-74
2021/07/23 06:45:19;;;;;;;59.77;4.23;;;18.00;1.00;;;;;;5050359;28;20899;-73
2021/07/23 06:47:46;;;;;;;57.87;2.73;;;18.20;1.00;;;;;;5069288;28;20458;-73
2021/07/23 06:50:14;;;;;;;61.47;3.83;;;18.20;1.00;;;;;;5071484;28;20457;-73
2021/07/23 06:52:41;;;;;;;58.83;3.43;;;18.30;1.00;;;;;;5071299;28;20450;-74
2021/07/23 06:55:10;;;;;;;58.20;3.27;;;18.40;1.00;;;;;;5071574;28;20579;-74
2021/07/23 06:57:36;;;;;;;58.60;3.00;;;18.50;1.00;;;;;;5071131;28;20497;-74
2021/07/23 07:00:04;;;;;;;59.50;3.50;;;18.50;1.00;;;;;;5071357;28;20490;-74
2021/07/23 07:02:31;;;;;;;58.80;3.00;;;18.60;1.00;;;;;;5071059;28;20468;-74
2021/07/23 07:04:59;;;;;;;59.20;4.40;;;18.70;1.00;;;;;;5071429;28;20499;-74
2021/07/23 07:07:27;;;;;;;57.67;2.40;;;18.80;1.00;;;;;;5071366;28;20446;-74
2021/07/23 07:09:54;;;;;;;58.70;2.83;;;18.90;1.00;;;;;;5071329;28;20976;-74
2021/07/23 07:12:21;;;;;;;59.63;4.03;;;19.00;1.00;;;;;;5071247;28;20892;-74
2021/07/23 07:14:48;;;;;;;60.40;3.53;;;19.10;1.00;;;;;;5069622;28;20479;-74
2021/07/23 07:17:15;;;;;;;58.20;2.60;;;19.20;1.00;;;;;;5071159;28;20578;-74
2021/07/23 07:19:42;;;;;;;58.80;3.47;;;19.30;1.00;;;;;;5071417;28;20449;-74
2021/07/23 07:22:09;;;;;;;59.27;3.67;;;19.30;1.00;;;;;;5070959;28;20546;-74
2021/07/23 07:24:38;;;;;;;58.93;3.10;;;19.40;1.00;;;;;;5071633;28;20867;-74
2021/07/23 07:27:08;;;;;;;58.87;3.47;;;19.50;1.00;;;;;;5071220;28;20477;-74
2021/07/23 07:29:36;;;;;;;59.07;3.87;;;19.60;1.00;;;;;;5070973;28;20986;-74
2021/07/23 07:32:05;;;;;;;58.40;2.80;;;19.70;1.00;;;;;;5070964;28;20474;-74
2021/07/23 07:34:34;;;;;;;58.80;2.80;;;19.80;1.00;;;;;;5072083;28;20542;-74
2021/07/23 07:37:01;;;;;;;58.27;2.90;;;19.90;1.00;;;;;;5074600;28;20998;-74
2021/07/23 07:39:28;;;;;;;57.97;2.60;;;20.00;1.00;;;;;;5074973;28;20494;-74
2021/07/23 07:41:56;;;;;;;58.53;3.20;;;20.10;1.00;;;;;;5074817;28;20538;-74
2021/07/23 07:44:23;;;;;;;58.37;3.10;;;20.10;1.00;;;;;;5074745;28;20563;-74
2021/07/23 07:46:50;;;;;;;59.50;3.60;;;20.20;1.00;;;;;;5073534;28;20456;-74
2021/07/23 07:49:19;;;;;;;59.00;3.57;;;20.30;1.00;;;;;;5059368;28;20532;-74
2021/07/23 07:51:46;;;;;;;59.00;3.30;;;20.30;1.00;;;;;;5054114;28;20457;-74
2021/07/23 07:54:13;;;;;;;60.00;3.60;;;20.50;1.00;;;;;;5054572;28;20535;-74
2021/07/23 07:56:40;;;;;;;58.73;3.27;;;20.60;1.00;;;;;;5054623;28;20584;-74
2021/07/23 07:59:09;;;;;;;58.07;2.47;;;20.70;1.00;;;;;;5054504;28;20461;-74
2021/07/23 08:01:35;;;;;;;58.23;2.60;;;20.80;1.00;;;;;;5054182;28;20453;-72
2021/07/23 08:04:03;;;;;;;59.20;2.80;;;20.90;1.00;;;;;;5054369;28;20464;-72
2021/07/23 08:06:34;;;;;;;58.27;2.90;;;21.00;1.00;;;;;;5054187;28;20507;-72
2021/07/23 08:09:08;;;;;;;59.37;4.50;;;21.10;1.00;;;;;;5054509;28;20549;-74
2021/07/23 08:11:35;;;;;;;58.17;3.10;;;21.10;1.00;;;;;;5054091;28;20769;-72
2021/07/23 08:14:02;;;;;;;58.50;2.63;;;21.30;1.00;;;;;;5054108;28;20447;-74
2021/07/23 08:16:32;;;;;;;58.50;3.17;;;21.30;1.00;;;;;;5054814;28;20840;-72
2021/07/23 08:19:01;;;;;;;60.30;3.13;;;21.50;1.00;;;;;;5073761;28;20534;-73
2021/07/23 08:21:30;;;;;;;59.20;3.20;;;21.50;1.00;;;;;;5073923;28;20845;-73
2021/07/23 08:23:57;;;;;;;59.40;4.00;;;21.60;1.00;;;;;;5073934;28;20454;-73
2021/07/23 08:26:24;;;;;;;58.27;2.60;;;21.80;1.00;;;;;;5073818;28;20641;-73
2021/07/23 08:28:51;;;;;;;59.57;2.97;;;21.90;1.00;;;;;;5074241;28;20447;-73
2021/07/23 08:31:18;;;;;;;60.70;4.43;;;22.00;1.00;;;;;;5073652;28;20482;-72
2021/07/23 08:33:46;;;;;;;58.13;3.20;;;22.10;1.00;;;;;;5073824;28;20552;-73
2021/07/23 08:36:13;;;;;;;58.17;2.70;;;22.20;1.00;;;;;;5073784;28;20557;-73
2021/07/23 08:38:40;;;;;;;58.30;2.87;;;22.30;1.00;;;;;;5073800;28;20546;-72
2021/07/23 08:41:10;;;;;;;58.47;3.23;;;22.40;1.00;;;;;;5073636;28;20535;-73
2021/07/23 08:43:37;;;;;;;58.87;3.07;;;22.50;1.00;;;;;;5073837;28;20547;-73
2021/07/23 08:46:03;;;;;;;59.80;4.40;;;22.70;1.00;;;;;;5072274;28;20474;-72
2021/07/23 08:48:31;;;;;;;59.40;3.60;;;22.80;1.00;;;;;;5073332;28;20454;-74
2021/07/23 08:50:59;;;;;;;59.47;3.23;;;22.90;1.00;;;;;;5073350;28;20455;-73
2021/07/23 08:53:26;;;;;;;58.80;3.00;;;23.10;1.00;;;;;;5073420;28;20870;-73
2021/07/23 08:55:53;;;;;;;59.17;3.30;;;23.20;1.00;;;;;;5073337;28;20903;-73
2021/07/23 08:58:20;;;;;;;58.83;3.97;;;23.30;1.00;;;;;;5073153;28;20451;-73
2021/07/23 09:00:47;;;;;;;59.10;3.40;;;23.40;1.00;;;;;;5073205;28;20944;-73
2021/07/23 09:03:14;;;;;;;58.43;2.60;;;23.50;1.00;;;;;;5072974;28;20893;-72
2021/07/23 09:05:45;;;;;;;59.77;4.00;;;23.60;1.00;;;;;;5073103;28;20510;-73
2021/07/23 09:08:15;;;;;;;60.47;3.63;;;23.80;1.00;;;;;;5073168;28;20452;-72
2021/07/23 09:10:42;;;;;;;58.57;3.00;;;23.80;1.00;;;;;;5073139;28;20454;-72
2021/07/23 09:13:09;;;;;;;59.30;2.70;;;23.90;1.00;;;;;;5072638;28;20534;-72
2021/07/23 09:15:38;;;;;;;58.30;2.90;;;24.10;1.00;;;;;;5073207;28;20467;-72
2021/07/23 09:18:07;;;;;;;58.30;2.63;;;24.20;1.00;;;;;;5073076;28;20553;-72
2021/07/23 09:20:36;;;;;;;58.03;2.90;;;24.40;1.00;;;;;;5073283;28;20449;-73
2021/07/23 09:23:05;;;;;;;57.87;2.50;;;24.60;1.00;;;;;;5072693;28;20450;-73
2021/07/23 09:25:41;;;;;;;58.67;2.73;;;24.70;1.00;;;;;;5073346;28;20473;-73
2021/07/23 09:28:27;;;;;;;58.37;2.73;;;24.90;1.00;;;;;;5073004;28;20454;-74
2021/07/23 09:30:55;;;;;;;58.97;3.20;;;25.00;1.00;;;;;;5057952;28;20455;-74
2021/07/23 09:33:30;;;;;;;62.37;3.47;;;25.20;1.00;;;;;;5052467;28;20454;-74
2021/07/23 09:35:59;;;;;;;58.47;3.37;;;25.30;1.00;;;;;;5052528;28;20844;-74
2021/07/23 09:38:33;;;;;;;59.07;3.43;;;25.40;1.00;;;;;;5052721;28;20488;-74
2021/07/23 09:41:03;;;;;;;58.90;3.13;;;25.50;1.00;;;;;;5052869;28;20954;-73
2021/07/23 09:43:32;;;;;;;58.27;2.60;;;25.70;1.00;;;;;;5052531;28;20468;-74
2021/07/23 09:46:27;;;;;;;58.60;2.90;;;25.90;1.00;;;;;;5052456;28;20465;-75
2021/07/23 09:48:55;;;;;;;59.10;3.70;;;26.00;1.00;;;;;;5052712;28;20441;-74
2021/07/23 09:51:24;;;;;;;58.60;3.00;;;26.20;1.00;;;;;;5052636;28;20534;-74
2021/07/23 09:53:51;;;;;;;58.70;3.07;;;26.40;1.00;;;;;;5052407;28;20456;-74
2021/07/23 09:56:19;;;;;;;59.07;3.60;;;26.50;1.00;;;;;;5052207;28;20552;-74
2021/07/23 09:58:50;;;;;;;58.80;3.10;;;26.60;1.00;;;;;;5052160;28;20545;-73
2021/07/23 10:01:22;;;;;;;58.00;2.80;;;26.80;1.00;;;;;;5052260;28;20485;-74
2021/07/23 10:03:51;;;;;;;59.00;3.50;;;26.90;1.00;;;;;;5052030;28;20542;-73
2021/07/23 10:06:26;;;;;;;58.27;2.97;;;27.10;1.00;;;;;;5052138;28;20479;-74
2021/07/23 10:08:56;;;;;;;59.17;3.10;;;27.10;1.00;;;;;;5052035;28;20544;-74
2021/07/23 10:11:26;;;;;;;58.90;3.20;;;27.30;1.00;;;;;;5051885;28;20521;-74
2021/07/23 10:13:56;;;;;;;58.87;3.07;;;27.50;1.00;;;;;;5052743;28;20447;-74
2021/07/23 10:16:23;;;;;;;58.40;3.07;;;27.60;1.00;;;;;;5052144;28;20472;-74
2021/07/23 10:18:51;;;;;;;58.03;2.50;;;28.00;1.00;;;;;;5051980;28;20535;-71
2021/07/23 10:21:18;;;;;;;58.70;2.80;;;28.20;1.00;;;;;;5051765;28;20440;-71
2021/07/23 10:23:46;;;;;;;59.33;3.27;;;28.60;1.00;;;;;;5051664;28;20451;-73
2021/07/23 10:26:13;;;;;;;58.70;3.00;;;29.20;1.00;;;;;;5051746;28;20564;-73
2021/07/23 10:28:58;;;;;;;59.60;4.13;;;30.50;1.00;;;;;;5051809;28;20452;-73
2021/07/23 10:31:55;;;;;;;58.30;2.87;;;31.70;1.00;;;;;;5051543;28;20450;-73
2021/07/23 10:34:32;;;;;;;59.00;2.80;;;32.70;1.00;;;;;;5051468;28;20995;-72
2021/07/23 10:37:00;;;;;;;58.50;2.77;;;33.50;1.00;;;;;;5051659;28;20483;-72
2021/07/23 10:39:27;;;;;;;57.70;2.83;;;34.30;1.00;;;;;;5051781;28;20483;-73
2021/07/23 10:42:29;;;;;;;58.47;3.13;;;34.90;1.00;;;;;;5051286;28;21027;-72
2021/07/23 10:44:58;;;;;;;57.80;2.87;;;35.30;1.00;;;;;;5053400;28;20471;-73
2021/07/23 10:47:46;;;;;;;58.07;2.70;;;35.50;1.00;;;;;;5071909;28;20539;-72
2021/07/23 10:50:16;;;;;;;58.80;3.30;;;35.80;1.00;;;;;;5067018;28;20462;-72
2021/07/23 10:52:42;;;;;;;58.27;2.90;;;36.00;1.00;;;;;;5071367;28;20446;-72
2021/07/23 10:55:22;;;;;;;58.27;2.83;;;36.40;1.00;;;;;;5071333;28;20550;-72
2021/07/23 10:58:28;;;;;;;57.83;2.97;;;37.00;1.00;;;;;;5071586;28;20487;-72
2021/07/23 11:00:59;;;;;;;58.33;3.33;;;37.40;1.00;;;;;;5066384;28;20477;-72
2021/07/23 11:03:58;;;;;;;57.70;3.10;;;37.60;1.00;;;;;;5071048;28;20455;-73
2021/07/23 11:06:29;;;;;;;57.97;3.00;;;38.10;1.00;;;;;;5067361;28;20549;-71
2021/07/23 11:09:02;;;;;;;58.77;3.20;;;38.50;1.00;;;;;;5071538;28;20788;-73
2021/07/23 11:11:29;;;;;;;57.17;3.10;;;38.70;1.00;;;;;;5075188;28;20947;-72
2021/07/23 11:14:12;;;;;;;58.13;2.83;;;38.80;1.00;;;;;;5066485;28;20527;-73
2021/07/23 11:16:41;;;;;;;57.70;2.90;;;39.10;1.00;;;;;;5067780;28;20452;-73
2021/07/23 11:19:07;;;;;;;58.27;3.40;;;39.20;1.00;;;;;;5075277;28;20871;-73
2021/07/23 11:21:36;;;;;;;57.67;3.10;;;39.50;1.00;;;;;;5074988;28;20482;-72
2021/07/23 11:24:08;;;;;;;58.50;3.23;;;39.50;1.00;;;;;;5074931;28;20534;-72
2021/07/23 11:26:35;;;;;;;58.60;2.97;;;39.50;1.00;;;;;;5075423;28;21005;-73
2021/07/23 11:29:02;;;;;;;58.47;3.30;;;39.50;1.00;;;;;;5075036;28;20978;-72
2021/07/23 11:31:33;;;;;;;57.80;3.33;;;39.80;1.00;;;;;;5074567;28;20534;-73
2021/07/23 11:34:22;;;;;;;58.13;2.97;;;39.70;1.00;;;;;;5074008;28;20835;-72
2021/07/23 11:36:49;;;;;;;57.40;2.60;;;39.40;1.00;;;;;;5074681;28;20839;-73
2021/07/23 11:39:16;;;;;;;57.70;3.03;;;39.60;1.00;;;;;;5074713;28;20522;-72
2021/07/23 11:41:59;;;;;;;57.50;3.20;;;39.90;1.00;;;;;;5074304;28;20445;-71
2021/07/23 11:44:26;;;;;;;57.07;3.10;;;40.40;1.00;;;;;;5072583;28;20581;-72
2021/07/23 11:46:53;;;;;;;57.87;3.07;;;40.50;1.00;;;;;;5074538;28;20508;-72
2021/07/23 11:49:21;;;;;;;57.87;3.50;;;40.20;1.00;;;;;;5075011;28;20556;-72
2021/07/23 11:51:48;;;;;;;57.10;2.77;;;40.00;1.00;;;;;;5074056;28;20450;-72
2021/07/23 11:54:19;;;;;;;58.40;3.67;;;40.20;1.00;;;;;;5073676;28;20439;-72
2021/07/23 11:56:46;;;;;;;58.10;2.80;;;40.50;1.00;;;;;;5074066;28;20444;-72
2021/07/23 11:59:14;;;;;;;57.70;3.20;;;40.90;1.00;;;;;;5073883;28;20991;-72
2021/07/23 12:01:41;;;;;;;58.27;3.00;;;41.20;1.00;;;;;;5074098;28;20978;-72
2021/07/23 12:04:09;;;;;;;57.90;2.90;;;41.50;1.00;;;;;;5074305;28;20562;-72
2021/07/23 12:06:39;;;;;;;58.23;3.20;;;41.80;1.00;;;;;;5074536;28;20447;-72
2021/07/23 12:09:09;;;;;;;58.17;3.30;;;41.80;1.00;;;;;;5074411;28;21036;-72
2021/07/23 12:11:36;;;;;;;57.00;2.43;;;41.70;1.00;;;;;;5073904;28;20970;-71
2021/07/23 12:14:08;;;;;;;57.27;2.90;;;41.70;1.00;;;;;;5064979;28;20893;-72
2021/07/23 12:16:35;;;;;;;57.10;2.63;;;41.80;1.00;;;;;;5053804;28;20540;-72
2021/07/23 12:19:04;;;;;;;58.40;2.87;;;41.70;1.00;;;;;;5053266;28;20487;-72
2021/07/23 12:21:31;;;;;;;57.27;2.70;;;41.60;1.00;;;;;;5052457;28;20452;-72
2021/07/23 12:24:01;;;;;;;57.50;2.50;;;41.80;1.00;;;;;;5053931;28;21007;-72
2021/07/23 12:26:30;;;;;;;57.27;3.10;;;41.90;1.00;;;;;;5054125;28;20444;-72
2021/07/23 12:28:58;;;;;;;56.50;2.17;;;41.80;1.00;;;;;;5053708;28;20488;-72
2021/07/23 12:31:25;;;;;;;57.97;3.03;;;42.00;1.00;;;;;;5053796;28;20536;-72
2021/07/23 12:34:02;;;;;;;56.80;2.93;;;42.20;1.00;;;;;;5053938;28;20550;-72
2021/07/23 12:36:29;;;;;;;57.70;2.83;;;42.30;1.00;;;;;;5053827;28;20451;-72
2021/07/23 12:39:04;;;;;;;57.30;2.87;;;41.60;1.00;;;;;;5053904;28;20570;-73
2021/07/23 12:41:31;;;;;;;57.77;3.20;;;40.90;1.00;;;;;;5053304;28;20451;-73
2021/07/23 12:44:05;;;;;;;60.03;4.10;;;40.60;1.00;;;;;;5053794;28;20974;-73
2021/07/23 12:46:33;;;;;;;57.30;2.60;;;40.50;1.00;;;;;;5053763;28;20479;-73
2021/07/23 12:49:13;;;;;;;57.73;2.93;;;40.40;1.00;;;;;;5053421;28;20444;-73
2021/07/23 12:51:40;;;;;;;57.77;3.23;;;40.50;1.00;;;;;;5052323;28;20534;-73
2021/07/23 12:54:09;;;;;;;57.07;2.70;;;40.40;1.00;;;;;;5060518;28;20451;-73